createdAt,value
2018-12-13T00:00:51.413Z,95.50
2018-12-13T00:03:18.904Z,95.70
2018-12-13T00:05:46.340Z,96.00
2018-12-13T00:08:13.794Z,95.90
2018-12-13T00:10:41.268Z,95.70
2018-12-13T00:13:08.725Z,95.70
2018-12-13T00:15:36.181Z,95.70
2018-12-13T00:18:03.725Z,95.80
2018-12-13T00:20:31.165Z,95.70
2018-12-13T00:22:58.618Z,95.70
2018-12-13T00:25:26.099Z,95.80
2018-12-13T00:27:53.553Z,95.90
2018-12-13T00:30:21.040Z,96.00
2018-12-13T00:32:48.493Z,95.90
2018-12-13T00:35:15.941Z,96.10
2018-12-13T00:37:43.389Z,96.10
2018-12-13T00:40:10.886Z,96.20
2018-12-13T00:42:38.343Z,96.20
2018-12-13T00:45:06.867Z,96.20
2018-12-13T00:47:34.365Z,96.20
2018-12-13T00:50:01.806Z,96.30
2018-12-13T00:52:29.266Z,96.40
2018-12-13T00:54:56.717Z,96.30
2018-12-13T00:57:24.175Z,96.20
2018-12-13T00:59:51.628Z,96.10
2018-12-13T01:02:19.083Z,95.90
2018-12-13T01:04:46.533Z,95.90
2018-12-13T01:07:13.995Z,95.80
2018-12-13T01:09:41.442Z,95.80
2018-12-13T01:12:08.902Z,95.80
2018-12-13T01:14:36.350Z,95.80
2018-12-13T01:17:03.804Z,95.90
2018-12-13T01:19:31.253Z,96.00
2018-12-13T01:21:58.705Z,96.10
2018-12-13T01:24:26.152Z,96.10
2018-12-13T01:26:53.601Z,96.20
2018-12-13T01:29:21.049Z,96.10
2018-12-13T01:31:48.504Z,96.10
2018-12-13T01:34:15.945Z,96.30
2018-12-13T01:36:43.407Z,96.20
2018-12-13T01:39:10.849Z,96.30
2018-12-13T01:41:38.296Z,96.20
2018-12-13T01:44:05.753Z,96.30
2018-12-13T01:46:33.258Z,96.30
2018-12-13T01:49:00.723Z,96.30
2018-12-13T01:51:28.173Z,96.30
2018-12-13T01:53:55.629Z,96.40
2018-12-13T01:56:23.124Z,96.20
2018-12-13T01:58:50.581Z,96.20
2018-12-13T02:01:18.023Z,96.30
2018-12-13T02:03:45.485Z,96.30
2018-12-13T02:06:12.941Z,96.40
2018-12-13T02:08:40.381Z,96.40
2018-12-13T02:11:07.863Z,96.30
2018-12-13T02:13:35.315Z,96.30
2018-12-13T02:16:02.792Z,96.30
2018-12-13T02:18:30.276Z,96.20
2018-12-13T02:20:57.761Z,96.40
2018-12-13T02:23:25.377Z,96.20
2018-12-13T02:25:52.820Z,96.30
2018-12-13T02:28:20.269Z,95.60
2018-12-13T02:30:47.716Z,94.70
2018-12-13T02:33:15.261Z,94.50
2018-12-13T02:35:42.695Z,94.10
2018-12-13T02:38:10.143Z,93.70
2018-12-13T02:40:37.758Z,93.90
2018-12-13T02:43:05.240Z,93.80
2018-12-13T02:45:32.714Z,94.10
2018-12-13T02:48:00.170Z,93.90
2018-12-13T02:50:27.609Z,93.60
2018-12-13T02:52:55.058Z,93.50
2018-12-13T02:55:22.501Z,93.70
2018-12-13T02:57:49.944Z,93.90
2018-12-13T03:00:17.425Z,93.80
2018-12-13T03:02:44.881Z,93.90
2018-12-13T03:05:12.364Z,94.00
2018-12-13T03:07:39.816Z,93.80
2018-12-13T03:10:07.296Z,93.90
2018-12-13T03:12:34.750Z,94.10
2018-12-13T03:15:02.324Z,94.10
2018-12-13T03:17:29.776Z,94.10
2018-12-13T03:19:57.219Z,94.30
2018-12-13T03:22:24.661Z,94.40
2018-12-13T03:24:52.120Z,94.30
2018-12-13T03:27:19.555Z,94.40
2018-12-13T03:29:47.005Z,94.50
2018-12-13T03:32:14.453Z,94.40
2018-12-13T03:34:41.997Z,94.80
2018-12-13T03:37:09.432Z,94.80
2018-12-13T03:39:36.897Z,94.70
2018-12-13T03:42:04.372Z,94.60
2018-12-13T03:44:31.830Z,94.70
2018-12-13T03:46:59.283Z,94.70
2018-12-13T03:49:26.770Z,94.70
2018-12-13T03:51:54.245Z,94.60
2018-12-13T03:54:21.693Z,94.90
2018-12-13T03:56:49.139Z,95.00
2018-12-13T03:59:16.588Z,95.10
2018-12-13T04:01:44.033Z,94.90
2018-12-13T04:04:11.486Z,94.90
2018-12-13T04:06:38.942Z,94.90
2018-12-13T04:09:06.663Z,95.00
2018-12-13T04:11:34.106Z,95.00
2018-12-13T04:14:01.597Z,95.20
2018-12-13T04:16:29.050Z,94.80
2018-12-13T04:18:56.502Z,94.80
2018-12-13T04:21:23.937Z,94.80
2018-12-13T04:23:51.398Z,95.00
2018-12-13T04:26:18.849Z,94.90
2018-12-13T04:28:46.310Z,94.90
2018-12-13T04:31:13.740Z,95.00
2018-12-13T04:33:41.207Z,94.80
2018-12-13T04:36:08.645Z,95.50
2018-12-13T04:38:36.109Z,95.30
2018-12-13T04:41:03.677Z,95.20
2018-12-13T04:43:31.130Z,95.30
2018-12-13T04:45:58.582Z,95.30
2018-12-13T04:48:26.041Z,95.50
2018-12-13T04:50:53.485Z,95.10
2018-12-13T04:53:20.969Z,95.10
2018-12-13T04:55:48.410Z,95.10
2018-12-13T04:58:15.891Z,95.30
2018-12-13T05:00:43.404Z,95.40
2018-12-13T05:03:10.852Z,95.20
2018-12-13T05:05:38.314Z,95.20
2018-12-13T05:08:05.762Z,95.50
2018-12-13T05:10:44.981Z,95.40
2018-12-13T05:13:12.426Z,95.30
2018-12-13T05:15:39.887Z,95.40
2018-12-13T05:18:07.334Z,95.50
2018-12-13T05:20:34.785Z,95.60
2018-12-13T05:23:02.234Z,95.50
2018-12-13T05:25:29.681Z,95.50
2018-12-13T05:27:57.172Z,95.50
2018-12-13T05:30:24.630Z,95.40
2018-12-13T05:32:52.073Z,95.30
2018-12-13T05:35:19.525Z,95.40
2018-12-13T05:37:48.373Z,95.40
2018-12-13T05:40:16.012Z,95.70
2018-12-13T05:42:43.501Z,95.50
2018-12-13T05:45:10.999Z,95.30
2018-12-13T05:47:38.449Z,95.50
2018-12-13T05:50:05.981Z,95.40
2018-12-13T05:52:33.431Z,95.60
2018-12-13T05:55:00.885Z,95.50
2018-12-13T05:57:28.334Z,95.50
2018-12-13T05:59:55.781Z,95.70
2018-12-13T06:02:23.233Z,95.50
2018-12-13T06:04:50.693Z,95.40
2018-12-13T06:07:18.220Z,95.40
2018-12-13T06:09:45.678Z,95.30
2018-12-13T06:12:13.124Z,95.40
2018-12-13T06:14:40.590Z,95.50
2018-12-13T06:17:08.038Z,95.50
2018-12-13T06:19:35.494Z,95.60
2018-12-13T06:22:02.940Z,95.70
2018-12-13T06:24:30.401Z,95.60
2018-12-13T06:26:57.844Z,95.80
2018-12-13T06:29:25.306Z,95.90
2018-12-13T06:31:52.796Z,95.90
2018-12-13T06:34:20.340Z,96.20
2018-12-13T06:36:47.786Z,96.00
2018-12-13T06:39:15.234Z,96.10
2018-12-13T06:41:42.725Z,96.20
2018-12-13T06:44:10.173Z,96.30
2018-12-13T06:46:37.651Z,96.20
2018-12-13T06:49:05.102Z,96.30
2018-12-13T06:51:32.565Z,96.40
2018-12-13T06:54:00.009Z,96.40
2018-12-13T06:56:27.467Z,96.50
2018-12-13T06:58:54.915Z,96.40
2018-12-13T07:01:22.376Z,96.60
2018-12-13T07:03:49.823Z,96.60
2018-12-13T07:06:17.302Z,96.70
2018-12-13T07:08:44.761Z,96.80
2018-12-13T07:11:12.214Z,96.90
2018-12-13T07:13:39.652Z,97.00
2018-12-13T07:16:07.105Z,97.20
2018-12-13T07:18:34.557Z,97.20
2018-12-13T07:21:02.029Z,97.20
2018-12-13T07:23:29.481Z,97.20
2018-12-13T07:25:56.931Z,97.00
2018-12-13T07:28:24.385Z,96.80
2018-12-13T07:30:51.869Z,96.50
2018-12-13T07:33:19.316Z,96.20
2018-12-13T07:35:46.825Z,96.00
2018-12-13T07:38:14.628Z,95.80
2018-12-13T07:40:42.257Z,95.80
2018-12-13T07:43:09.716Z,95.80
2018-12-13T07:45:37.197Z,95.60
2018-12-13T07:48:04.670Z,95.50
2018-12-13T07:50:32.156Z,95.40
2018-12-13T07:52:59.601Z,95.10
2018-12-13T07:55:27.088Z,95.20
2018-12-13T07:57:54.542Z,95.20
2018-12-13T08:00:22.037Z,95.20
2018-12-13T08:02:55.810Z,95.00
2018-12-13T08:05:23.252Z,95.20
2018-12-13T08:07:50.705Z,94.80
2018-12-13T08:10:18.174Z,94.40
2018-12-13T08:12:45.631Z,94.30
2018-12-13T08:15:13.085Z,93.70
2018-12-13T08:17:40.549Z,94.00
2018-12-13T08:20:08.292Z,94.00
2018-12-13T08:22:35.751Z,93.90
2018-12-13T08:25:03.899Z,93.80
2018-12-13T08:27:31.367Z,93.70
2018-12-13T08:29:58.817Z,93.40
2018-12-13T08:32:26.314Z,93.60
2018-12-13T08:34:53.778Z,93.80
2018-12-13T08:37:21.278Z,93.10
2018-12-13T08:39:48.771Z,93.00
2018-12-13T08:42:16.224Z,92.90
2018-12-13T08:44:43.685Z,93.10
2018-12-13T08:47:11.173Z,93.20
2018-12-13T08:49:38.628Z,93.00
2018-12-13T08:52:06.090Z,93.10
2018-12-13T08:54:33.538Z,93.00
2018-12-13T08:57:01.002Z,92.90
2018-12-13T08:59:28.453Z,92.90
2018-12-13T09:01:55.909Z,92.30
2018-12-13T09:04:23.375Z,92.50
2018-12-13T09:06:50.844Z,92.70
2018-12-13T09:09:18.297Z,92.40
2018-12-13T09:11:45.757Z,92.30
2018-12-13T09:14:13.296Z,92.40
2018-12-13T09:16:40.789Z,92.00
2018-12-13T09:19:08.234Z,92.10
2018-12-13T09:21:35.736Z,92.10
2018-12-13T09:24:03.188Z,92.10
2018-12-13T09:26:31.019Z,91.80
2018-12-13T09:28:58.485Z,92.00
2018-12-13T09:31:25.946Z,91.90
2018-12-13T09:33:53.430Z,91.60
2018-12-13T09:36:20.894Z,91.90
2018-12-13T09:38:48.338Z,91.70
2018-12-13T09:41:15.805Z,91.70
2018-12-13T09:43:43.290Z,91.80
2018-12-13T09:46:10.755Z,91.90
2018-12-13T09:48:38.198Z,91.80
2018-12-13T09:51:05.685Z,91.90
2018-12-13T09:53:33.136Z,92.30
2018-12-13T09:56:01.336Z,91.90
2018-12-13T09:58:28.770Z,91.90
2018-12-13T10:00:56.222Z,92.10
2018-12-13T10:03:23.682Z,91.90
2018-12-13T10:05:51.126Z,92.10
2018-12-13T10:08:18.594Z,91.50
2018-12-13T10:10:46.060Z,91.80
2018-12-13T10:13:13.515Z,91.00
2018-12-13T10:15:40.964Z,90.80
2018-12-13T10:18:08.426Z,90.80
2018-12-13T10:20:35.889Z,90.70
2018-12-13T10:23:03.386Z,90.60
2018-12-13T10:25:30.896Z,90.30
2018-12-13T10:27:58.349Z,90.20
2018-12-13T10:30:25.811Z,90.30
2018-12-13T10:32:53.262Z,90.40
2018-12-13T10:35:20.758Z,90.20
2018-12-13T10:37:48.270Z,90.10
2018-12-13T10:40:15.766Z,90.10
2018-12-13T10:42:43.227Z,89.90
2018-12-13T10:45:10.674Z,90.10
2018-12-13T10:47:38.149Z,88.60
2018-12-13T10:50:06.171Z,88.80
2018-12-13T10:52:33.631Z,88.60
2018-12-13T10:55:01.081Z,88.60
2018-12-13T10:57:28.534Z,88.00
2018-12-13T10:59:56.000Z,89.00
2018-12-13T11:02:29.362Z,87.60
2018-12-13T11:04:56.806Z,87.40
2018-12-13T11:07:24.266Z,86.50
2018-12-13T11:09:51.721Z,86.10
2018-12-13T11:12:19.195Z,86.20
2018-12-13T11:14:46.643Z,86.60
2018-12-13T11:17:14.174Z,85.70
2018-12-13T11:19:41.741Z,85.80
2018-12-13T11:22:09.214Z,86.70
2018-12-13T11:24:36.669Z,86.20
2018-12-13T11:27:21.905Z,87.20
2018-12-13T11:29:58.083Z,85.60
2018-12-13T11:32:25.533Z,85.70
2018-12-13T11:34:53.004Z,86.40
2018-12-13T11:37:20.456Z,86.70
2018-12-13T11:39:47.911Z,85.90
2018-12-13T11:42:15.390Z,86.30
2018-12-13T11:44:42.846Z,85.60
2018-12-13T11:47:10.357Z,85.90
2018-12-13T11:49:37.820Z,85.30
2018-12-13T11:52:05.270Z,84.90
2018-12-13T11:54:34.363Z,84.50
2018-12-13T11:57:02.023Z,85.30
2018-12-13T11:59:29.486Z,84.90
2018-12-13T12:01:56.952Z,85.50
2018-12-13T12:04:24.415Z,84.50
2018-12-13T12:06:51.873Z,83.90
2018-12-13T12:09:19.434Z,83.50
2018-12-13T12:11:46.881Z,83.40
2018-12-13T12:14:14.339Z,83.70
2018-12-13T12:16:41.781Z,84.00
2018-12-13T12:19:09.341Z,82.70
2018-12-13T12:21:36.826Z,81.70
2018-12-13T12:24:04.291Z,83.00
2018-12-13T12:26:32.498Z,83.20
2018-12-13T12:28:59.977Z,83.20
2018-12-13T12:31:27.468Z,83.60
2018-12-13T12:33:54.925Z,84.40
2018-12-13T12:36:22.387Z,84.70
2018-12-13T12:38:49.838Z,84.10
2018-12-13T12:41:17.296Z,84.20
2018-12-13T12:43:44.746Z,83.70
2018-12-13T12:46:12.205Z,84.50
2018-12-13T12:48:39.659Z,83.70
2018-12-13T12:51:07.121Z,84.70
2018-12-13T12:53:34.567Z,84.20
2018-12-13T12:56:02.760Z,84.40
2018-12-13T12:58:30.199Z,84.00
2018-12-13T13:00:57.705Z,83.90
2018-12-13T13:03:25.162Z,84.00
2018-12-13T13:05:52.621Z,84.00
2018-12-13T13:08:20.087Z,84.00
2018-12-13T13:10:47.546Z,83.60
2018-12-13T13:13:14.995Z,84.40
2018-12-13T13:15:42.466Z,85.00
2018-12-13T13:18:09.916Z,85.60
2018-12-13T13:20:37.378Z,85.40
2018-12-13T13:23:04.830Z,85.40
2018-12-13T13:25:32.298Z,86.00
2018-12-13T13:27:59.798Z,86.20
2018-12-13T13:30:27.284Z,85.40
2018-12-13T13:32:54.735Z,85.90
2018-12-13T13:35:22.195Z,85.80
2018-12-13T13:37:49.649Z,84.90
2018-12-13T13:40:17.108Z,85.10
2018-12-13T13:42:44.562Z,85.00
2018-12-13T13:45:13.397Z,85.60
2018-12-13T13:47:40.859Z,85.90
2018-12-13T13:50:08.358Z,85.50
2018-12-13T13:52:35.808Z,86.00
2018-12-13T13:55:03.950Z,86.70
2018-12-13T13:57:31.418Z,86.90
2018-12-13T13:59:58.875Z,87.30
2018-12-13T14:02:26.338Z,86.80
2018-12-13T14:04:53.793Z,85.90
2018-12-13T14:07:21.255Z,86.70
2018-12-13T14:09:48.702Z,86.80
2018-12-13T14:12:16.157Z,86.00
2018-12-13T14:14:43.613Z,86.30
2018-12-13T14:17:11.073Z,86.40
2018-12-13T14:19:38.522Z,86.70
2018-12-13T14:22:06.047Z,85.80
2018-12-13T14:24:33.498Z,85.90
2018-12-13T14:27:00.953Z,85.70
2018-12-13T14:29:28.408Z,85.50
2018-12-13T14:31:55.875Z,86.50
2018-12-13T14:34:23.326Z,87.60
2018-12-13T14:36:50.796Z,87.50
2018-12-13T14:39:18.239Z,86.80
2018-12-13T14:41:45.746Z,87.20
2018-12-13T14:44:13.189Z,88.10
2018-12-13T14:46:40.644Z,88.10
2018-12-13T14:49:08.103Z,87.70
2018-12-13T14:51:35.649Z,88.20
2018-12-13T14:54:03.142Z,88.00
2018-12-13T14:56:30.644Z,88.30
2018-12-13T14:58:58.099Z,89.00
2018-12-13T15:01:25.592Z,89.10
2018-12-13T15:03:53.041Z,89.40
2018-12-13T15:06:20.539Z,89.30
2018-12-13T15:08:47.999Z,89.20
2018-12-13T15:11:15.442Z,89.00
2018-12-13T15:13:42.917Z,89.70
2018-12-13T15:16:11.019Z,89.60
2018-12-13T15:18:38.627Z,89.90
2018-12-13T15:21:06.114Z,90.10
2018-12-13T15:23:33.582Z,90.20
2018-12-13T15:26:01.039Z,90.40
2018-12-13T15:28:28.498Z,90.50
2018-12-13T15:30:55.950Z,90.50
2018-12-13T15:33:23.403Z,90.50
2018-12-13T15:35:50.847Z,90.40
2018-12-13T15:38:18.306Z,90.50
2018-12-13T15:40:45.786Z,90.40
2018-12-13T15:43:13.255Z,90.30
2018-12-13T15:45:41.059Z,90.40
2018-12-13T15:48:08.555Z,90.40
2018-12-13T15:50:36.002Z,90.50
2018-12-13T15:53:03.498Z,90.30
2018-12-13T15:55:31.038Z,90.50
2018-12-13T15:57:58.501Z,90.50
2018-12-13T16:00:25.991Z,90.40
2018-12-13T16:02:53.458Z,90.60
2018-12-13T16:05:20.920Z,90.60
2018-12-13T16:07:48.374Z,90.70
2018-12-13T16:10:15.834Z,90.80
2018-12-13T16:12:43.287Z,91.00
2018-12-13T16:15:10.791Z,90.80
2018-12-13T16:17:38.285Z,90.80
2018-12-13T16:20:06.106Z,91.00
2018-12-13T16:22:33.572Z,91.00
2018-12-13T16:25:01.034Z,91.00
2018-12-13T16:27:28.485Z,90.60
2018-12-13T16:29:56.111Z,90.70
2018-12-13T16:32:23.551Z,90.80
2018-12-13T16:34:51.002Z,91.00
2018-12-13T16:37:18.456Z,90.90
2018-12-13T16:39:45.943Z,90.90
2018-12-13T16:42:13.381Z,91.00
2018-12-13T16:44:40.850Z,91.20
2018-12-13T16:47:08.311Z,91.00
2018-12-13T16:49:35.921Z,91.10
2018-12-13T16:52:03.374Z,90.90
2018-12-13T16:54:30.964Z,91.30
2018-12-13T16:56:58.474Z,91.30
2018-12-13T16:59:25.944Z,91.00
2018-12-13T17:01:53.409Z,90.90
2018-12-13T17:04:20.859Z,90.90
2018-12-13T17:06:48.319Z,90.60
2018-12-13T17:09:15.784Z,90.60
2018-12-13T17:11:43.394Z,90.50
2018-12-13T17:14:10.880Z,90.70
2018-12-13T17:16:38.628Z,90.90
2018-12-13T17:19:06.218Z,90.80
2018-12-13T17:21:33.696Z,90.80
2018-12-13T17:24:01.187Z,90.90
2018-12-13T17:26:28.766Z,91.00
2018-12-13T17:28:56.219Z,91.00
2018-12-13T17:31:23.721Z,91.00
2018-12-13T17:33:51.182Z,90.90
2018-12-13T17:36:18.660Z,90.80
2018-12-13T17:38:46.124Z,91.40
2018-12-13T17:41:13.585Z,91.20
2018-12-13T17:43:41.042Z,90.90
2018-12-13T17:46:08.606Z,91.10
2018-12-13T17:48:36.099Z,90.90
2018-12-13T17:51:03.563Z,91.10
2018-12-13T17:53:31.010Z,91.10
2018-12-13T17:55:58.783Z,91.40
2018-12-13T17:58:26.245Z,91.40
2018-12-13T18:00:53.716Z,91.20
2018-12-13T18:03:21.179Z,91.20
2018-12-13T18:05:48.659Z,91.20
2018-12-13T18:08:16.106Z,91.20
2018-12-13T18:10:43.852Z,91.30
2018-12-13T18:13:11.307Z,91.40
2018-12-13T18:15:38.766Z,91.60
2018-12-13T18:18:06.435Z,91.20
2018-12-13T18:20:33.911Z,91.30
2018-12-13T18:23:01.365Z,91.40
2018-12-13T18:25:28.835Z,91.60
2018-12-13T18:27:56.286Z,91.70
2018-12-13T18:30:23.768Z,91.80
2018-12-13T18:32:51.222Z,91.50
2018-12-13T18:35:18.762Z,91.80
2018-12-13T18:37:46.214Z,91.60
2018-12-13T18:40:13.730Z,91.90
2018-12-13T18:42:41.205Z,91.70
2018-12-13T18:45:08.707Z,91.30
2018-12-13T18:47:36.157Z,91.30
2018-12-13T18:50:04.459Z,91.40
2018-12-13T18:52:31.918Z,91.50
2018-12-13T18:54:59.378Z,91.90
2018-12-13T18:57:26.926Z,91.90
2018-12-13T18:59:54.405Z,92.00
2018-12-13T19:02:22.001Z,91.90
2018-12-13T19:04:49.468Z,91.80
2018-12-13T19:07:16.935Z,91.90
2018-12-13T19:09:44.496Z,92.00
2018-12-13T19:12:11.950Z,92.10
2018-12-13T19:14:39.654Z,92.00
2018-12-13T19:17:07.129Z,92.20
2018-12-13T19:19:34.599Z,91.80
2018-12-13T19:22:02.099Z,92.00
2018-12-13T19:24:29.567Z,91.90
2018-12-13T19:26:57.044Z,92.10
2018-12-13T19:29:24.499Z,91.90
2018-12-13T19:31:51.975Z,92.10
2018-12-13T19:34:19.456Z,92.10
2018-12-13T19:36:46.927Z,92.10
2018-12-13T19:39:14.382Z,92.20
2018-12-13T19:41:42.114Z,92.00
2018-12-13T19:44:11.256Z,91.90
2018-12-13T19:46:39.011Z,91.90
2018-12-13T19:49:06.683Z,92.10
2018-12-13T19:51:34.607Z,92.10
2018-12-13T19:54:02.334Z,92.10
2018-12-13T19:56:30.763Z,92.00
2018-12-13T19:58:58.522Z,91.90
2018-12-13T20:01:26.345Z,92.10
2018-12-13T20:03:54.112Z,92.20
2018-12-13T20:06:22.623Z,92.20
2018-12-13T20:08:50.122Z,92.00
2018-12-13T20:11:17.589Z,92.10
2018-12-13T20:13:45.057Z,92.10
2018-12-13T20:16:12.583Z,92.10
2018-12-13T20:18:40.082Z,92.10
2018-12-13T20:21:07.612Z,92.00
2018-12-13T20:23:35.152Z,92.10
2018-12-13T20:26:02.653Z,92.20
2018-12-13T20:28:30.110Z,92.30
2018-12-13T20:30:57.564Z,92.40
2018-12-13T20:33:25.023Z,92.40
2018-12-13T20:35:52.503Z,92.10
2018-12-13T20:38:19.951Z,91.90
2018-12-13T20:40:47.409Z,92.30
2018-12-13T20:43:14.853Z,92.00
2018-12-13T20:45:42.327Z,91.70
2018-12-13T20:48:09.817Z,91.60
2018-12-13T20:50:37.274Z,91.50
2018-12-13T20:53:04.717Z,91.40
2018-12-13T20:55:32.170Z,91.80
2018-12-13T20:57:59.627Z,91.40
2018-12-13T21:00:27.127Z,91.20
2018-12-13T21:02:54.587Z,91.30
2018-12-13T21:05:22.039Z,91.30
2018-12-13T21:07:49.485Z,91.30
2018-12-13T21:10:16.941Z,91.40
2018-12-13T21:12:44.398Z,91.50
2018-12-13T21:15:11.848Z,91.60
2018-12-13T21:17:39.300Z,91.40
2018-12-13T21:20:06.786Z,91.60
2018-12-13T21:22:34.244Z,91.60
2018-12-13T21:25:01.689Z,91.50
2018-12-13T21:27:29.145Z,91.50
2018-12-13T21:29:56.597Z,91.50
2018-12-13T21:32:24.098Z,91.60
2018-12-13T21:34:51.555Z,91.40
2018-12-13T21:37:19.041Z,91.30
2018-12-13T21:39:46.527Z,91.30
2018-12-13T21:42:13.985Z,91.50
2018-12-13T21:44:41.461Z,91.40
2018-12-13T21:47:08.910Z,91.50
2018-12-13T21:49:36.369Z,91.50
2018-12-13T21:52:03.894Z,91.40
2018-12-13T21:54:31.343Z,91.40
2018-12-13T21:56:58.833Z,91.30
2018-12-13T21:59:26.285Z,91.00
2018-12-13T22:01:53.745Z,90.80
2018-12-13T22:04:21.193Z,90.90
2018-12-13T22:06:48.650Z,90.80
2018-12-13T22:09:16.102Z,91.00
2018-12-13T22:11:43.554Z,90.80
2018-12-13T22:14:11.010Z,91.00
2018-12-13T22:16:38.469Z,90.70
2018-12-13T22:19:05.957Z,90.80
2018-12-13T22:21:33.413Z,90.90
2018-12-13T22:24:00.862Z,90.80
2018-12-13T22:26:28.352Z,90.80
2018-12-13T22:28:55.801Z,91.30
2018-12-13T22:31:23.302Z,90.90
2018-12-13T22:33:50.754Z,90.90
2018-12-13T22:36:18.255Z,90.90
2018-12-13T22:38:46.447Z,90.60
2018-12-13T22:41:13.901Z,90.70
2018-12-13T22:43:41.363Z,90.80
2018-12-13T22:46:08.812Z,90.90
2018-12-13T22:48:36.260Z,90.60
2018-12-13T22:51:03.790Z,90.40
2018-12-13T22:53:31.241Z,90.30
2018-12-13T22:55:58.689Z,90.40
2018-12-13T22:58:26.185Z,90.30
2018-12-13T23:00:53.668Z,90.20
2018-12-13T23:03:21.270Z,90.30
2018-12-13T23:05:48.749Z,90.40
2018-12-13T23:08:16.211Z,90.30
2018-12-13T23:10:43.666Z,90.40
2018-12-13T23:13:11.158Z,90.40
2018-12-13T23:15:38.610Z,90.50
2018-12-13T23:18:06.145Z,90.30
2018-12-13T23:20:33.591Z,90.40
2018-12-13T23:23:01.050Z,90.60
2018-12-13T23:25:28.543Z,90.30
2018-12-13T23:27:55.993Z,90.30
2018-12-13T23:30:23.485Z,90.30
2018-12-13T23:32:50.948Z,90.40
2018-12-13T23:35:18.437Z,90.40
2018-12-13T23:37:45.905Z,90.50
2018-12-13T23:40:13.349Z,90.50
2018-12-13T23:42:40.805Z,90.40
2018-12-13T23:45:08.289Z,90.30
2018-12-13T23:47:35.749Z,90.30
2018-12-13T23:50:03.573Z,90.50
2018-12-13T23:52:31.029Z,90.40
2018-12-13T23:54:58.485Z,90.20
2018-12-13T23:57:26.018Z,90.30
2018-12-13T23:59:53.466Z,90.30
